sensor_id;sensor_type;location;lat;lon;timestamp;P1;durP1;ratioP1;P2;durP2;ratioP2
10096;SDS011;5087;42.662;23.466;2023-03-12T00:02:33;4.50;;;4.40;;
10096;SDS011;5087;42.662;23.466;2023-03-12T00:05:03;4.53;;;4.43;;
10096;SDS011;5087;42.662;23.466;2023-03-12T00:07:32;4.30;;;4.20;;
10096;SDS011;5087;42.662;23.466;2023-03-12T00:10:02;4.30;;;4.20;;
10096;SDS011;5087;42.662;23.466;2023-03-12T00:12:32;4.70;;;4.60;;
10096;SDS011;5087;42.662;23.466;2023-03-12T00:14:59;4.60;;;4.50;;
10096;SDS011;5087;42.662;23.466;2023-03-12T00:17:28;4.57;;;4.47;;
10096;SDS011;5087;42.662;23.466;2023-03-12T00:19:55;4.70;;;4.60;;
10096;SDS011;5087;42.662;23.466;2023-03-12T00:22:24;4.40;;;4.30;;
10096;SDS011;5087;42.662;23.466;2023-03-12T00:24:52;4.70;;;4.60;;
10096;SDS011;5087;42.662;23.466;2023-03-12T00:27:22;4.90;;;4.80;;
10096;SDS011;5087;42.662;23.466;2023-03-12T00:29:50;5.53;;;5.33;;
10096;SDS011;5087;42.662;23.466;2023-03-12T00:32:17;4.30;;;4.20;;
10096;SDS011;5087;42.662;23.466;2023-03-12T00:34:49;4.70;;;4.60;;
10096;SDS011;5087;42.662;23.466;2023-03-12T00:37:17;4.60;;;4.50;;
10096;SDS011;5087;42.662;23.466;2023-03-12T00:39:46;4.70;;;4.60;;
10096;SDS011;5087;42.662;23.466;2023-03-12T00:42:13;4.70;;;4.60;;
10096;SDS011;5087;42.662;23.466;2023-03-12T00:44:41;4.90;;;4.80;;
10096;SDS011;5087;42.662;23.466;2023-03-12T00:47:09;5.00;;;4.90;;
10096;SDS011;5087;42.662;23.466;2023-03-12T00:49:37;4.90;;;4.80;;
10096;SDS011;5087;42.662;23.466;2023-03-12T00:52:04;5.37;;;5.27;;
10096;SDS011;5087;42.662;23.466;2023-03-12T00:54:32;4.80;;;4.70;;
10096;SDS011;5087;42.662;23.466;2023-03-12T00:57:01;4.90;;;4.80;;
10096;SDS011;5087;42.662;23.466;2023-03-12T00:59:34;5.10;;;5.00;;
10096;SDS011;5087;42.662;23.466;2023-03-12T01:02:05;4.90;;;4.80;;
10096;SDS011;5087;42.662;23.466;2023-03-12T01:04:32;4.80;;;4.70;;
10096;SDS011;5087;42.662;23.466;2023-03-12T01:07:00;5.00;;;4.90;;
10096;SDS011;5087;42.662;23.466;2023-03-12T01:09:30;5.13;;;5.03;;
10096;SDS011;5087;42.662;23.466;2023-03-12T01:11:57;5.17;;;5.07;;
10096;SDS011;5087;42.662;23.466;2023-03-12T01:14:26;5.30;;;5.20;;
10096;SDS011;5087;42.662;23.466;2023-03-12T01:16:56;5.13;;;5.03;;
10096;SDS011;5087;42.662;23.466;2023-03-12T01:19:23;5.20;;;5.10;;
10096;SDS011;5087;42.662;23.466;2023-03-12T01:21:51;5.30;;;5.20;;
10096;SDS011;5087;42.662;23.466;2023-03-12T01:24:21;4.97;;;4.87;;
10096;SDS011;5087;42.662;23.466;2023-03-12T01:26:50;5.33;;;5.23;;
10096;SDS011;5087;42.662;23.466;2023-03-12T01:29:18;5.00;;;4.90;;
10096;SDS011;5087;42.662;23.466;2023-03-12T01:31:47;5.60;;;5.50;;
10096;SDS011;5087;42.662;23.466;2023-03-12T01:34:16;5.20;;;5.10;;
10096;SDS011;5087;42.662;23.466;2023-03-12T01:36:44;5.43;;;5.33;;
10096;SDS011;5087;42.662;23.466;2023-03-12T01:39:12;5.50;;;5.40;;
10096;SDS011;5087;42.662;23.466;2023-03-12T01:41:40;5.53;;;5.43;;
10096;SDS011;5087;42.662;23.466;2023-03-12T01:44:12;5.30;;;5.20;;
10096;SDS011;5087;42.662;23.466;2023-03-12T01:46:43;5.23;;;5.13;;
10096;SDS011;5087;42.662;23.466;2023-03-12T01:49:21;10.83;;;5.33;;
10096;SDS011;5087;42.662;23.466;2023-03-12T01:51:53;5.60;;;5.40;;
10096;SDS011;5087;42.662;23.466;2023-03-12T01:54:26;4.90;;;4.80;;
10096;SDS011;5087;42.662;23.466;2023-03-12T01:56:59;5.30;;;5.20;;
10096;SDS011;5087;42.662;23.466;2023-03-12T01:59:32;5.67;;;5.57;;
10096;SDS011;5087;42.662;23.466;2023-03-12T02:02:04;5.27;;;5.17;;
10096;SDS011;5087;42.662;23.466;2023-03-12T02:04:37;5.17;;;5.07;;
10096;SDS011;5087;42.662;23.466;2023-03-12T02:07:08;5.40;;;5.30;;
10096;SDS011;5087;42.662;23.466;2023-03-12T02:09:39;5.00;;;4.90;;
10096;SDS011;5087;42.662;23.466;2023-03-12T02:12:09;5.20;;;5.10;;
10096;SDS011;5087;42.662;23.466;2023-03-12T02:14:37;5.30;;;5.20;;
10096;SDS011;5087;42.662;23.466;2023-03-12T02:17:08;5.43;;;5.33;;
10096;SDS011;5087;42.662;23.466;2023-03-12T02:19:40;5.30;;;5.20;;
10096;SDS011;5087;42.662;23.466;2023-03-12T02:22:13;5.27;;;5.17;;
10096;SDS011;5087;42.662;23.466;2023-03-12T02:24:43;5.40;;;5.30;;
10096;SDS011;5087;42.662;23.466;2023-03-12T02:27:16;5.40;;;5.30;;
10096;SDS011;5087;42.662;23.466;2023-03-12T02:29:45;8.87;;;8.13;;
10096;SDS011;5087;42.662;23.466;2023-03-12T02:32:16;5.87;;;5.77;;
10096;SDS011;5087;42.662;23.466;2023-03-12T02:34:47;5.60;;;5.50;;
10096;SDS011;5087;42.662;23.466;2023-03-12T02:37:15;5.23;;;5.13;;
10096;SDS011;5087;42.662;23.466;2023-03-12T02:39:43;5.20;;;5.10;;
10096;SDS011;5087;42.662;23.466;2023-03-12T02:42:18;5.40;;;5.30;;
10096;SDS011;5087;42.662;23.466;2023-03-12T02:44:47;5.60;;;5.50;;
10096;SDS011;5087;42.662;23.466;2023-03-12T02:47:16;5.70;;;5.60;;
10096;SDS011;5087;42.662;23.466;2023-03-12T02:49:44;5.37;;;5.27;;
10096;SDS011;5087;42.662;23.466;2023-03-12T02:52:11;4.83;;;4.73;;
10096;SDS011;5087;42.662;23.466;2023-03-12T02:54:38;5.17;;;5.07;;
10096;SDS011;5087;42.662;23.466;2023-03-12T02:57:06;5.50;;;5.40;;
10096;SDS011;5087;42.662;23.466;2023-03-12T02:59:35;5.10;;;5.00;;
10096;SDS011;5087;42.662;23.466;2023-03-12T03:02:07;5.27;;;5.17;;
10096;SDS011;5087;42.662;23.466;2023-03-12T03:04:37;5.37;;;5.27;;
10096;SDS011;5087;42.662;23.466;2023-03-12T03:07:06;5.27;;;5.17;;
10096;SDS011;5087;42.662;23.466;2023-03-12T03:09:33;5.33;;;5.23;;
10096;SDS011;5087;42.662;23.466;2023-03-12T03:12:01;5.03;;;4.93;;
10096;SDS011;5087;42.662;23.466;2023-03-12T03:14:31;5.00;;;4.90;;
10096;SDS011;5087;42.662;23.466;2023-03-12T03:17:00;5.60;;;5.50;;
10096;SDS011;5087;42.662;23.466;2023-03-12T03:19:28;5.33;;;5.23;;
10096;SDS011;5087;42.662;23.466;2023-03-12T03:21:55;5.17;;;5.07;;
10096;SDS011;5087;42.662;23.466;2023-03-12T03:24:23;5.40;;;5.30;;
10096;SDS011;5087;42.662;23.466;2023-03-12T03:26:50;5.30;;;5.20;;
10096;SDS011;5087;42.662;23.466;2023-03-12T03:29:19;5.37;;;5.27;;
10096;SDS011;5087;42.662;23.466;2023-03-12T03:31:47;5.43;;;5.33;;
10096;SDS011;5087;42.662;23.466;2023-03-12T03:34:17;5.37;;;5.27;;
10096;SDS011;5087;42.662;23.466;2023-03-12T03:36:45;5.50;;;5.40;;
10096;SDS011;5087;42.662;23.466;2023-03-12T03:39:14;5.40;;;5.30;;
10096;SDS011;5087;42.662;23.466;2023-03-12T03:41:44;5.30;;;5.20;;
10096;SDS011;5087;42.662;23.466;2023-03-12T03:44:15;5.67;;;5.57;;
10096;SDS011;5087;42.662;23.466;2023-03-12T03:46:43;5.00;;;4.90;;
10096;SDS011;5087;42.662;23.466;2023-03-12T03:49:12;5.70;;;5.60;;
10096;SDS011;5087;42.662;23.466;2023-03-12T03:51:43;5.50;;;5.40;;
10096;SDS011;5087;42.662;23.466;2023-03-12T03:54:14;5.57;;;5.47;;
10096;SDS011;5087;42.662;23.466;2023-03-12T03:56:43;5.33;;;5.23;;
10096;SDS011;5087;42.662;23.466;2023-03-12T03:59:14;5.73;;;5.63;;
10096;SDS011;5087;42.662;23.466;2023-03-12T04:01:42;5.57;;;5.47;;
10096;SDS011;5087;42.662;23.466;2023-03-12T04:04:10;5.40;;;5.30;;
10096;SDS011;5087;42.662;23.466;2023-03-12T04:06:38;5.30;;;5.20;;
10096;SDS011;5087;42.662;23.466;2023-03-12T04:09:07;5.40;;;5.30;;
10096;SDS011;5087;42.662;23.466;2023-03-12T04:11:37;5.50;;;5.40;;
10096;SDS011;5087;42.662;23.466;2023-03-12T04:14:06;5.33;;;5.23;;
10096;SDS011;5087;42.662;23.466;2023-03-12T04:16:38;5.57;;;5.47;;
10096;SDS011;5087;42.662;23.466;2023-03-12T04:19:06;5.73;;;5.63;;
10096;SDS011;5087;42.662;23.466;2023-03-12T04:21:33;5.40;;;5.30;;
10096;SDS011;5087;42.662;23.466;2023-03-12T04:24:05;5.57;;;5.47;;
10096;SDS011;5087;42.662;23.466;2023-03-12T04:26:37;5.50;;;5.40;;
10096;SDS011;5087;42.662;23.466;2023-03-12T04:29:07;5.77;;;5.67;;
10096;SDS011;5087;42.662;23.466;2023-03-12T04:31:35;5.80;;;5.70;;
10096;SDS011;5087;42.662;23.466;2023-03-12T04:34:03;5.70;;;5.60;;
10096;SDS011;5087;42.662;23.466;2023-03-12T04:36:33;5.50;;;5.40;;
10096;SDS011;5087;42.662;23.466;2023-03-12T04:39:01;6.10;;;6.00;;
10096;SDS011;5087;42.662;23.466;2023-03-12T04:41:32;5.80;;;5.70;;
10096;SDS011;5087;42.662;23.466;2023-03-12T04:44:08;5.60;;;5.50;;
10096;SDS011;5087;42.662;23.466;2023-03-12T04:46:36;5.70;;;5.60;;
10096;SDS011;5087;42.662;23.466;2023-03-12T04:49:04;5.70;;;5.60;;
10096;SDS011;5087;42.662;23.466;2023-03-12T04:51:34;5.80;;;5.70;;
10096;SDS011;5087;42.662;23.466;2023-03-12T04:54:03;5.40;;;5.30;;
10096;SDS011;5087;42.662;23.466;2023-03-12T04:56:34;5.80;;;5.70;;
10096;SDS011;5087;42.662;23.466;2023-03-12T04:59:01;5.70;;;5.60;;
10096;SDS011;5087;42.662;23.466;2023-03-12T05:01:31;5.53;;;5.43;;
10096;SDS011;5087;42.662;23.466;2023-03-12T05:04:05;5.50;;;5.40;;
10096;SDS011;5087;42.662;23.466;2023-03-12T05:06:34;5.50;;;5.40;;
10096;SDS011;5087;42.662;23.466;2023-03-12T05:09:02;5.60;;;5.50;;
10096;SDS011;5087;42.662;23.466;2023-03-12T05:11:31;5.40;;;5.30;;
10096;SDS011;5087;42.662;23.466;2023-03-12T05:13:58;5.80;;;5.70;;
10096;SDS011;5087;42.662;23.466;2023-03-12T05:16:27;5.80;;;5.70;;
10096;SDS011;5087;42.662;23.466;2023-03-12T05:18:56;5.90;;;5.80;;
10096;SDS011;5087;42.662;23.466;2023-03-12T05:21:25;5.70;;;5.60;;
10096;SDS011;5087;42.662;23.466;2023-03-12T05:23:55;6.10;;;6.00;;
10096;SDS011;5087;42.662;23.466;2023-03-12T05:26:26;5.83;;;5.73;;
10096;SDS011;5087;42.662;23.466;2023-03-12T05:29:03;6.00;;;5.90;;
10096;SDS011;5087;42.662;23.466;2023-03-12T05:31:35;6.10;;;6.00;;
10096;SDS011;5087;42.662;23.466;2023-03-12T05:34:08;5.60;;;5.50;;
10096;SDS011;5087;42.662;23.466;2023-03-12T05:36:39;5.70;;;5.60;;
10096;SDS011;5087;42.662;23.466;2023-03-12T05:39:07;5.60;;;5.50;;
10096;SDS011;5087;42.662;23.466;2023-03-12T05:41:42;5.60;;;5.50;;
10096;SDS011;5087;42.662;23.466;2023-03-12T05:44:15;5.60;;;5.50;;
10096;SDS011;5087;42.662;23.466;2023-03-12T05:46:46;5.50;;;5.40;;
10096;SDS011;5087;42.662;23.466;2023-03-12T05:49:15;5.60;;;5.50;;
10096;SDS011;5087;42.662;23.466;2023-03-12T05:51:45;5.70;;;5.60;;
10096;SDS011;5087;42.662;23.466;2023-03-12T05:54:13;5.90;;;5.80;;
10096;SDS011;5087;42.662;23.466;2023-03-12T05:56:41;6.33;;;6.23;;
10096;SDS011;5087;42.662;23.466;2023-03-12T05:59:09;6.20;;;6.10;;
10096;SDS011;5087;42.662;23.466;2023-03-12T06:01:39;6.10;;;6.00;;
10096;SDS011;5087;42.662;23.466;2023-03-12T06:04:15;5.70;;;5.60;;
10096;SDS011;5087;42.662;23.466;2023-03-12T06:06:44;5.70;;;5.60;;
10096;SDS011;5087;42.662;23.466;2023-03-12T06:09:12;5.50;;;5.40;;
10096;SDS011;5087;42.662;23.466;2023-03-12T06:11:41;5.67;;;5.57;;
10096;SDS011;5087;42.662;23.466;2023-03-12T06:14:09;6.77;;;6.37;;
10096;SDS011;5087;42.662;23.466;2023-03-12T06:16:38;5.93;;;5.83;;
10096;SDS011;5087;42.662;23.466;2023-03-12T06:19:07;5.80;;;5.70;;
10096;SDS011;5087;42.662;23.466;2023-03-12T06:21:41;6.00;;;5.90;;
10096;SDS011;5087;42.662;23.466;2023-03-12T06:24:09;5.53;;;5.43;;
10096;SDS011;5087;42.662;23.466;2023-03-12T06:26:49;5.00;;;4.90;;
10096;SDS011;5087;42.662;23.466;2023-03-12T06:29:21;5.00;;;4.90;;
10096;SDS011;5087;42.662;23.466;2023-03-12T06:31:52;4.70;;;4.60;;
10096;SDS011;5087;42.662;23.466;2023-03-12T06:34:20;5.27;;;5.17;;
10096;SDS011;5087;42.662;23.466;2023-03-12T06:36:51;4.80;;;4.70;;
10096;SDS011;5087;42.662;23.466;2023-03-12T06:39:18;4.67;;;4.57;;
10096;SDS011;5087;42.662;23.466;2023-03-12T06:41:46;4.90;;;4.80;;
10096;SDS011;5087;42.662;23.466;2023-03-12T06:44:14;4.87;;;4.77;;
10096;SDS011;5087;42.662;23.466;2023-03-12T06:46:43;5.13;;;5.03;;
10096;SDS011;5087;42.662;23.466;2023-03-12T06:49:26;5.00;;;4.90;;
10096;SDS011;5087;42.662;23.466;2023-03-12T06:51:58;5.50;;;5.40;;
10096;SDS011;5087;42.662;23.466;2023-03-12T06:54:25;4.70;;;4.60;;
10096;SDS011;5087;42.662;23.466;2023-03-12T06:56:53;5.00;;;4.90;;
10096;SDS011;5087;42.662;23.466;2023-03-12T06:59:20;5.33;;;5.23;;
10096;SDS011;5087;42.662;23.466;2023-03-12T07:01:52;4.87;;;4.77;;
10096;SDS011;5087;42.662;23.466;2023-03-12T07:04:22;5.10;;;5.00;;
10096;SDS011;5087;42.662;23.466;2023-03-12T07:06:50;5.10;;;5.00;;
10096;SDS011;5087;42.662;23.466;2023-03-12T07:09:18;5.20;;;5.10;;
10096;SDS011;5087;42.662;23.466;2023-03-12T07:11:47;4.90;;;4.80;;
10096;SDS011;5087;42.662;23.466;2023-03-12T07:14:17;4.67;;;4.57;;
10096;SDS011;5087;42.662;23.466;2023-03-12T07:16:46;4.50;;;4.40;;
10096;SDS011;5087;42.662;23.466;2023-03-12T07:19:13;4.50;;;4.40;;
10096;SDS011;5087;42.662;23.466;2023-03-12T07:21:41;5.03;;;4.93;;
10096;SDS011;5087;42.662;23.466;2023-03-12T07:24:08;4.57;;;4.47;;
10096;SDS011;5087;42.662;23.466;2023-03-12T07:26:37;5.07;;;4.97;;
10096;SDS011;5087;42.662;23.466;2023-03-12T07:29:05;4.40;;;4.30;;
10096;SDS011;5087;42.662;23.466;2023-03-12T07:31:33;3.80;;;3.80;;
10096;SDS011;5087;42.662;23.466;2023-03-12T07:34:00;4.30;;;4.20;;
10096;SDS011;5087;42.662;23.466;2023-03-12T07:36:31;4.23;;;4.13;;
10096;SDS011;5087;42.662;23.466;2023-03-12T07:38:58;4.83;;;4.73;;
10096;SDS011;5087;42.662;23.466;2023-03-12T07:41:26;4.70;;;4.60;;
10096;SDS011;5087;42.662;23.466;2023-03-12T07:43:56;4.40;;;4.30;;
10096;SDS011;5087;42.662;23.466;2023-03-12T07:46:25;3.80;;;3.80;;
10096;SDS011;5087;42.662;23.466;2023-03-12T07:48:52;4.13;;;4.03;;
10096;SDS011;5087;42.662;23.466;2023-03-12T07:51:20;3.60;;;3.60;;
10096;SDS011;5087;42.662;23.466;2023-03-12T07:53:47;4.20;;;4.10;;
10096;SDS011;5087;42.662;23.466;2023-03-12T07:56:15;3.73;;;3.73;;
10096;SDS011;5087;42.662;23.466;2023-03-12T07:58:43;3.50;;;3.50;;
10096;SDS011;5087;42.662;23.466;2023-03-12T08:01:12;3.40;;;3.40;;
10096;SDS011;5087;42.662;23.466;2023-03-12T08:03:40;3.60;;;3.60;;
10096;SDS011;5087;42.662;23.466;2023-03-12T08:06:08;3.40;;;3.40;;
10096;SDS011;5087;42.662;23.466;2023-03-12T08:08:41;3.50;;;3.50;;
10096;SDS011;5087;42.662;23.466;2023-03-12T08:11:12;3.70;;;3.70;;
10096;SDS011;5087;42.662;23.466;2023-03-12T08:13:40;3.80;;;3.80;;
10096;SDS011;5087;42.662;23.466;2023-03-12T08:16:07;3.30;;;3.30;;
10096;SDS011;5087;42.662;23.466;2023-03-12T08:18:36;3.93;;;3.90;;
10096;SDS011;5087;42.662;23.466;2023-03-12T08:21:07;4.10;;;4.00;;
10096;SDS011;5087;42.662;23.466;2023-03-12T08:23:35;3.60;;;3.60;;
10096;SDS011;5087;42.662;23.466;2023-03-12T08:26:02;3.50;;;3.50;;
10096;SDS011;5087;42.662;23.466;2023-03-12T08:28:32;3.50;;;3.50;;
10096;SDS011;5087;42.662;23.466;2023-03-12T08:31:00;3.47;;;3.47;;
10096;SDS011;5087;42.662;23.466;2023-03-12T08:33:28;3.70;;;3.70;;
10096;SDS011;5087;42.662;23.466;2023-03-12T08:35:57;3.40;;;3.40;;
10096;SDS011;5087;42.662;23.466;2023-03-12T08:38:24;3.70;;;3.70;;
10096;SDS011;5087;42.662;23.466;2023-03-12T08:40:56;3.50;;;3.50;;
10096;SDS011;5087;42.662;23.466;2023-03-12T08:43:24;3.57;;;3.57;;
10096;SDS011;5087;42.662;23.466;2023-03-12T08:45:53;3.70;;;3.70;;
10096;SDS011;5087;42.662;23.466;2023-03-12T08:48:21;3.50;;;3.50;;
10096;SDS011;5087;42.662;23.466;2023-03-12T08:50:49;3.67;;;3.67;;
10096;SDS011;5087;42.662;23.466;2023-03-12T08:53:18;3.60;;;3.60;;
10096;SDS011;5087;42.662;23.466;2023-03-12T08:55:50;3.07;;;3.07;;
10096;SDS011;5087;42.662;23.466;2023-03-12T08:58:19;3.20;;;3.20;;
10096;SDS011;5087;42.662;23.466;2023-03-12T09:00:46;3.30;;;3.30;;
10096;SDS011;5087;42.662;23.466;2023-03-12T09:03:15;3.20;;;3.20;;
10096;SDS011;5087;42.662;23.466;2023-03-12T09:05:43;2.90;;;2.90;;
10096;SDS011;5087;42.662;23.466;2023-03-12T09:08:14;2.70;;;2.70;;
10096;SDS011;5087;42.662;23.466;2023-03-12T09:10:54;2.80;;;2.80;;
10096;SDS011;5087;42.662;23.466;2023-03-12T09:13:26;2.70;;;2.70;;
10096;SDS011;5087;42.662;23.466;2023-03-12T09:16:00;3.10;;;3.10;;
10096;SDS011;5087;42.662;23.466;2023-03-12T09:18:36;2.60;;;2.60;;
10096;SDS011;5087;42.662;23.466;2023-03-12T09:21:13;2.70;;;2.70;;
10096;SDS011;5087;42.662;23.466;2023-03-12T09:23:47;2.50;;;2.50;;
10096;SDS011;5087;42.662;23.466;2023-03-12T09:26:17;2.40;;;2.40;;
10096;SDS011;5087;42.662;23.466;2023-03-12T09:28:45;2.50;;;2.50;;
10096;SDS011;5087;42.662;23.466;2023-03-12T09:31:18;3.00;;;3.00;;
10096;SDS011;5087;42.662;23.466;2023-03-12T09:34:03;2.60;;;2.60;;
10096;SDS011;5087;42.662;23.466;2023-03-12T09:36:32;2.80;;;2.80;;
10096;SDS011;5087;42.662;23.466;2023-03-12T09:39:01;2.40;;;2.40;;
10096;SDS011;5087;42.662;23.466;2023-03-12T09:41:34;2.50;;;2.50;;
10096;SDS011;5087;42.662;23.466;2023-03-12T09:44:08;2.40;;;2.40;;
10096;SDS011;5087;42.662;23.466;2023-03-12T09:46:42;2.77;;;2.77;;
10096;SDS011;5087;42.662;23.466;2023-03-12T09:49:15;2.10;;;2.10;;
10096;SDS011;5087;42.662;23.466;2023-03-12T09:51:46;2.40;;;2.40;;
10096;SDS011;5087;42.662;23.466;2023-03-12T09:54:26;2.50;;;2.50;;
10096;SDS011;5087;42.662;23.466;2023-03-12T09:57:02;2.40;;;2.40;;
10096;SDS011;5087;42.662;23.466;2023-03-12T09:59:34;2.50;;;2.50;;
10096;SDS011;5087;42.662;23.466;2023-03-12T10:02:03;2.70;;;2.70;;
10096;SDS011;5087;42.662;23.466;2023-03-12T10:04:53;2.50;;;2.50;;
10096;SDS011;5087;42.662;23.466;2023-03-12T10:07:29;2.13;;;2.13;;
10096;SDS011;5087;42.662;23.466;2023-03-12T10:10:03;2.20;;;2.20;;
10096;SDS011;5087;42.662;23.466;2023-03-12T10:12:46;2.20;;;2.20;;
10096;SDS011;5087;42.662;23.466;2023-03-12T10:15:34;2.40;;;2.40;;
10096;SDS011;5087;42.662;23.466;2023-03-12T10:18:11;2.40;;;2.40;;
10096;SDS011;5087;42.662;23.466;2023-03-12T10:20:49;2.30;;;2.30;;
10096;SDS011;5087;42.662;23.466;2023-03-12T10:23:24;2.20;;;2.20;;
10096;SDS011;5087;42.662;23.466;2023-03-12T10:26:09;2.20;;;2.20;;
10096;SDS011;5087;42.662;23.466;2023-03-12T10:28:43;2.10;;;2.10;;
10096;SDS011;5087;42.662;23.466;2023-03-12T10:31:15;2.00;;;2.00;;
10096;SDS011;5087;42.662;23.466;2023-03-12T10:33:48;2.00;;;2.00;;
10096;SDS011;5087;42.662;23.466;2023-03-12T10:36:19;1.90;;;1.90;;
10096;SDS011;5087;42.662;23.466;2023-03-12T10:38:50;1.80;;;1.80;;
10096;SDS011;5087;42.662;23.466;2023-03-12T10:41:19;1.90;;;1.90;;
10096;SDS011;5087;42.662;23.466;2023-03-12T10:43:50;1.90;;;1.90;;
10096;SDS011;5087;42.662;23.466;2023-03-12T10:46:28;1.80;;;1.80;;
10096;SDS011;5087;42.662;23.466;2023-03-12T10:49:25;1.90;;;1.90;;
10096;SDS011;5087;42.662;23.466;2023-03-12T10:51:55;1.80;;;1.80;;
10096;SDS011;5087;42.662;23.466;2023-03-12T10:54:29;1.80;;;1.80;;
10096;SDS011;5087;42.662;23.466;2023-03-12T10:56:58;1.70;;;1.70;;
10096;SDS011;5087;42.662;23.466;2023-03-12T10:59:29;1.70;;;1.70;;
10096;SDS011;5087;42.662;23.466;2023-03-12T11:02:00;1.60;;;1.60;;
10096;SDS011;5087;42.662;23.466;2023-03-12T11:04:30;1.60;;;1.60;;
10096;SDS011;5087;42.662;23.466;2023-03-12T11:07:15;1.60;;;1.60;;
10096;SDS011;5087;42.662;23.466;2023-03-12T11:10:02;1.60;;;1.60;;
10096;SDS011;5087;42.662;23.466;2023-03-12T11:12:49;1.60;;;1.60;;
10096;SDS011;5087;42.662;23.466;2023-03-12T11:15:22;1.60;;;1.60;;
10096;SDS011;5087;42.662;23.466;2023-03-12T11:17:55;1.60;;;1.60;;
10096;SDS011;5087;42.662;23.466;2023-03-12T11:20:50;1.70;;;1.70;;
10096;SDS011;5087;42.662;23.466;2023-03-12T11:23:22;1.90;;;1.90;;
10096;SDS011;5087;42.662;23.466;2023-03-12T11:25:56;1.70;;;1.70;;
10096;SDS011;5087;42.662;23.466;2023-03-12T11:28:33;1.60;;;1.60;;
10096;SDS011;5087;42.662;23.466;2023-03-12T11:31:10;1.60;;;1.60;;
10096;SDS011;5087;42.662;23.466;2023-03-12T11:33:48;1.70;;;1.70;;
10096;SDS011;5087;42.662;23.466;2023-03-12T11:36:21;1.80;;;1.80;;
10096;SDS011;5087;42.662;23.466;2023-03-12T11:39:02;1.73;;;1.73;;
10096;SDS011;5087;42.662;23.466;2023-03-12T11:41:43;2.67;;;2.57;;
10096;SDS011;5087;42.662;23.466;2023-03-12T11:44:30;1.53;;;1.53;;
10096;SDS011;5087;42.662;23.466;2023-03-12T11:50:21;1.60;;;1.60;;
10096;SDS011;5087;42.662;23.466;2023-03-12T11:53:04;1.60;;;1.60;;
10096;SDS011;5087;42.662;23.466;2023-03-12T11:55:50;1.40;;;1.40;;
10096;SDS011;5087;42.662;23.466;2023-03-12T11:58:29;1.60;;;1.60;;
10096;SDS011;5087;42.662;23.466;2023-03-12T12:01:17;1.60;;;1.60;;
10096;SDS011;5087;42.662;23.466;2023-03-12T12:06:52;1.70;;;1.70;;
10096;SDS011;5087;42.662;23.466;2023-03-12T12:09:30;1.60;;;1.60;;
10096;SDS011;5087;42.662;23.466;2023-03-12T12:12:07;1.60;;;1.60;;
10096;SDS011;5087;42.662;23.466;2023-03-12T12:14:50;1.60;;;1.60;;
10096;SDS011;5087;42.662;23.466;2023-03-12T12:17:37;1.43;;;1.43;;
10096;SDS011;5087;42.662;23.466;2023-03-12T12:20:20;1.50;;;1.50;;
10096;SDS011;5087;42.662;23.466;2023-03-12T12:23:08;1.60;;;1.60;;
10096;SDS011;5087;42.662;23.466;2023-03-12T12:25:48;1.70;;;1.70;;
10096;SDS011;5087;42.662;23.466;2023-03-12T12:28:27;1.60;;;1.60;;
10096;SDS011;5087;42.662;23.466;2023-03-12T12:31:07;1.60;;;1.60;;
10096;SDS011;5087;42.662;23.466;2023-03-12T12:33:54;1.63;;;1.63;;
10096;SDS011;5087;42.662;23.466;2023-03-12T12:36:33;1.60;;;1.60;;
10096;SDS011;5087;42.662;23.466;2023-03-12T12:39:08;2.33;;;2.33;;
10096;SDS011;5087;42.662;23.466;2023-03-12T12:41:41;1.80;;;1.80;;
10096;SDS011;5087;42.662;23.466;2023-03-12T12:44:16;1.60;;;1.60;;
10096;SDS011;5087;42.662;23.466;2023-03-12T12:46:49;1.40;;;1.40;;
10096;SDS011;5087;42.662;23.466;2023-03-12T12:49:21;1.60;;;1.60;;
10096;SDS011;5087;42.662;23.466;2023-03-12T12:51:54;1.60;;;1.60;;
10096;SDS011;5087;42.662;23.466;2023-03-12T12:54:27;1.60;;;1.60;;
10096;SDS011;5087;42.662;23.466;2023-03-12T12:56:59;1.60;;;1.60;;
10096;SDS011;5087;42.662;23.466;2023-03-12T12:59:33;1.50;;;1.50;;
10096;SDS011;5087;42.662;23.466;2023-03-12T13:02:12;1.40;;;1.40;;
10096;SDS011;5087;42.662;23.466;2023-03-12T13:04:43;1.40;;;1.40;;
10096;SDS011;5087;42.662;23.466;2023-03-12T13:07:28;1.53;;;1.53;;
10096;SDS011;5087;42.662;23.466;2023-03-12T13:10:03;1.70;;;1.70;;
10096;SDS011;5087;42.662;23.466;2023-03-12T13:12:34;1.60;;;1.60;;
10096;SDS011;5087;42.662;23.466;2023-03-12T13:18:16;1.60;;;1.60;;
10096;SDS011;5087;42.662;23.466;2023-03-12T13:20:59;1.70;;;1.70;;
10096;SDS011;5087;42.662;23.466;2023-03-12T13:23:48;1.93;;;1.93;;
10096;SDS011;5087;42.662;23.466;2023-03-12T13:26:28;1.50;;;1.50;;
10096;SDS011;5087;42.662;23.466;2023-03-12T13:28:59;1.50;;;1.50;;
10096;SDS011;5087;42.662;23.466;2023-03-12T13:31:46;1.50;;;1.50;;
10096;SDS011;5087;42.662;23.466;2023-03-12T13:37:19;1.50;;;1.50;;
10096;SDS011;5087;42.662;23.466;2023-03-12T13:39:56;1.40;;;1.40;;
10096;SDS011;5087;42.662;23.466;2023-03-12T13:42:37;1.50;;;1.50;;
10096;SDS011;5087;42.662;23.466;2023-03-12T13:45:24;1.50;;;1.50;;
10096;SDS011;5087;42.662;23.466;2023-03-12T13:47:55;1.30;;;1.30;;
10096;SDS011;5087;42.662;23.466;2023-03-12T13:50:26;1.50;;;1.50;;
10096;SDS011;5087;42.662;23.466;2023-03-12T13:52:59;1.50;;;1.50;;
10096;SDS011;5087;42.662;23.466;2023-03-12T13:55:33;1.30;;;1.30;;
10096;SDS011;5087;42.662;23.466;2023-03-12T13:58:08;1.20;;;1.20;;
10096;SDS011;5087;42.662;23.466;2023-03-12T14:00:42;1.40;;;1.40;;
10096;SDS011;5087;42.662;23.466;2023-03-12T14:03:24;1.47;;;1.47;;
10096;SDS011;5087;42.662;23.466;2023-03-12T14:05:56;1.33;;;1.33;;
10096;SDS011;5087;42.662;23.466;2023-03-12T14:08:36;1.50;;;1.50;;
10096;SDS011;5087;42.662;23.466;2023-03-12T14:11:22;1.50;;;1.50;;
10096;SDS011;5087;42.662;23.466;2023-03-12T14:14:17;1.70;;;1.70;;
10096;SDS011;5087;42.662;23.466;2023-03-12T14:17:11;1.50;;;1.50;;
10096;SDS011;5087;42.662;23.466;2023-03-12T14:19:45;1.40;;;1.40;;
10096;SDS011;5087;42.662;23.466;2023-03-12T14:22:14;1.37;;;1.37;;
10096;SDS011;5087;42.662;23.466;2023-03-12T14:24:48;1.40;;;1.40;;
10096;SDS011;5087;42.662;23.466;2023-03-12T14:27:22;1.47;;;1.47;;
10096;SDS011;5087;42.662;23.466;2023-03-12T14:29:56;1.30;;;1.30;;
10096;SDS011;5087;42.662;23.466;2023-03-12T14:32:28;1.30;;;1.30;;
10096;SDS011;5087;42.662;23.466;2023-03-12T14:35:03;1.30;;;1.30;;
10096;SDS011;5087;42.662;23.466;2023-03-12T14:37:41;1.40;;;1.40;;
10096;SDS011;5087;42.662;23.466;2023-03-12T14:40:22;1.40;;;1.40;;
10096;SDS011;5087;42.662;23.466;2023-03-12T14:42:58;1.50;;;1.50;;
10096;SDS011;5087;42.662;23.466;2023-03-12T14:45:27;1.20;;;1.20;;
10096;SDS011;5087;42.662;23.466;2023-03-12T14:47:55;1.40;;;1.40;;
10096;SDS011;5087;42.662;23.466;2023-03-12T14:50:24;1.50;;;1.50;;
10096;SDS011;5087;42.662;23.466;2023-03-12T14:52:53;2.80;;;2.60;;
10096;SDS011;5087;42.662;23.466;2023-03-12T14:55:22;1.70;;;1.70;;
10096;SDS011;5087;42.662;23.466;2023-03-12T14:58:01;1.30;;;1.30;;
10096;SDS011;5087;42.662;23.466;2023-03-12T15:00:31;1.20;;;1.20;;
10096;SDS011;5087;42.662;23.466;2023-03-12T15:03:01;1.20;;;1.20;;
10096;SDS011;5087;42.662;23.466;2023-03-12T15:05:32;1.20;;;1.20;;
10096;SDS011;5087;42.662;23.466;2023-03-12T15:08:00;1.33;;;1.33;;
10096;SDS011;5087;42.662;23.466;2023-03-12T15:10:30;1.30;;;1.30;;
10096;SDS011;5087;42.662;23.466;2023-03-12T15:12:59;1.20;;;1.20;;
10096;SDS011;5087;42.662;23.466;2023-03-12T15:15:34;1.30;;;1.30;;
10096;SDS011;5087;42.662;23.466;2023-03-12T15:18:07;1.30;;;1.30;;
10096;SDS011;5087;42.662;23.466;2023-03-12T15:20:39;1.30;;;1.30;;
10096;SDS011;5087;42.662;23.466;2023-03-12T15:23:08;1.30;;;1.30;;
10096;SDS011;5087;42.662;23.466;2023-03-12T15:25:39;1.30;;;1.30;;
10096;SDS011;5087;42.662;23.466;2023-03-12T15:28:23;2.00;;;1.87;;
10096;SDS011;5087;42.662;23.466;2023-03-12T15:31:07;1.30;;;1.30;;